Chester Depot, Vermont
Current Conditions -  °F | °C
As of 12:54 PM on Friday 19 Dec 2014 (Local Time) from KVSF Reporting Station
Overcast Overcast  
Wind Chill: 22°   Ceiling: 2800
Heat Index: 30°   Visibility: 10mi
Dew Point: 20°   Wind: 8mph
Humidity: 66%   Direction: 300°WNW
Pressure: 29.98"   Gusts: NA
Location:  43.36°N, 72.57°W
Report Text: KVSF 191754Z AUTO 30007KT 10SM OVC028 M01/M07 A2998 RMK AO2 SLP162 T10111067 11011 21017 50000 TSNO
Loading
Personal Weather Stations






























Interactive Weather Map New forecast layout! Learn more

10-Day Weather Forecast

Advertisements
Track Severe Weather on mobile